sensor_id;sensor_type;location;lat;lon;timestamp;pressure;altitude;pressure_sealevel;temperature;humidity
65173;BME280;69059;52.218;5.172;2023-08-20T00:00:30;101741.44;;;19.30;100.00
65173;BME280;69059;52.218;5.172;2023-08-20T00:02:59;101750.72;;;19.39;100.00
65173;BME280;69059;52.218;5.172;2023-08-20T00:05:29;101757.88;;;19.39;100.00
65173;BME280;69059;52.218;5.172;2023-08-20T00:07:57;101763.00;;;19.33;100.00
65173;BME280;69059;52.218;5.172;2023-08-20T00:10:25;101763.47;;;19.24;100.00
65173;BME280;69059;52.218;5.172;2023-08-20T00:12:53;101759.09;;;19.05;100.00
65173;BME280;69059;52.218;5.172;2023-08-20T00:15:20;101756.63;;;19.10;100.00
65173;BME280;69059;52.218;5.172;2023-08-20T00:17:54;101749.25;;;19.18;100.00
65173;BME280;69059;52.218;5.172;2023-08-20T00:20:22;101747.75;;;19.29;100.00
65173;BME280;69059;52.218;5.172;2023-08-20T00:22:50;101758.94;;;19.31;100.00
65173;BME280;69059;52.218;5.172;2023-08-20T00:25:18;101768.09;;;19.35;100.00
65173;BME280;69059;52.218;5.172;2023-08-20T00:27:46;101773.38;;;19.35;100.00
65173;BME280;69059;52.218;5.172;2023-08-20T00:30:14;101779.28;;;19.37;100.00
65173;BME280;69059;52.218;5.172;2023-08-20T00:32:41;101788.81;;;19.38;100.00
65173;BME280;69059;52.218;5.172;2023-08-20T00:35:10;101777.53;;;19.24;100.00
65173;BME280;69059;52.218;5.172;2023-08-20T00:37:38;101793.50;;;19.43;100.00
65173;BME280;69059;52.218;5.172;2023-08-20T00:40:07;101802.47;;;19.42;100.00
65173;BME280;69059;52.218;5.172;2023-08-20T00:42:36;101794.00;;;19.26;100.00
65173;BME280;69059;52.218;5.172;2023-08-20T00:45:04;101789.91;;;19.30;100.00
65173;BME280;69059;52.218;5.172;2023-08-20T00:47:32;101786.84;;;19.33;100.00
65173;BME280;69059;52.218;5.172;2023-08-20T00:50:00;101793.56;;;19.29;100.00
65173;BME280;69059;52.218;5.172;2023-08-20T00:52:30;101796.88;;;19.25;100.00
65173;BME280;69059;52.218;5.172;2023-08-20T00:54:58;101789.56;;;19.20;100.00
65173;BME280;69059;52.218;5.172;2023-08-20T00:57:26;101794.84;;;19.20;100.00
65173;BME280;69059;52.218;5.172;2023-08-20T00:59:54;101794.25;;;19.18;100.00
65173;BME280;69059;52.218;5.172;2023-08-20T01:02:22;101797.69;;;19.19;100.00
65173;BME280;69059;52.218;5.172;2023-08-20T01:04:50;101798.53;;;19.19;100.00
65173;BME280;69059;52.218;5.172;2023-08-20T01:07:20;101804.41;;;19.21;100.00
65173;BME280;69059;52.218;5.172;2023-08-20T01:09:58;101804.63;;;19.20;100.00
65173;BME280;69059;52.218;5.172;2023-08-20T01:12:29;101754.28;;;18.88;100.00
65173;BME280;69059;52.218;5.172;2023-08-20T01:14:58;101810.88;;;19.25;100.00
65173;BME280;69059;52.218;5.172;2023-08-20T01:17:26;101824.38;;;19.24;100.00
65173;BME280;69059;52.218;5.172;2023-08-20T01:19:54;101813.25;;;19.02;100.00
65173;BME280;69059;52.218;5.172;2023-08-20T01:22:40;101803.91;;;19.00;100.00
65173;BME280;69059;52.218;5.172;2023-08-20T01:25:17;101814.66;;;19.05;100.00
65173;BME280;69059;52.218;5.172;2023-08-20T01:27:51;101808.59;;;18.98;100.00
65173;BME280;69059;52.218;5.172;2023-08-20T01:30:21;101774.69;;;18.75;100.00
65173;BME280;69059;52.218;5.172;2023-08-20T01:32:49;101812.06;;;18.91;100.00
65173;BME280;69059;52.218;5.172;2023-08-20T01:35:17;101810.66;;;18.89;100.00
65173;BME280;69059;52.218;5.172;2023-08-20T01:37:45;101817.59;;;18.83;100.00
65173;BME280;69059;52.218;5.172;2023-08-20T01:40:13;101823.91;;;18.82;100.00
65173;BME280;69059;52.218;5.172;2023-08-20T01:42:41;101821.69;;;18.79;100.00
65173;BME280;69059;52.218;5.172;2023-08-20T01:45:09;101821.88;;;18.78;100.00
65173;BME280;69059;52.218;5.172;2023-08-20T01:47:38;101817.44;;;18.72;100.00
65173;BME280;69059;52.218;5.172;2023-08-20T01:50:06;101829.25;;;18.69;100.00
65173;BME280;69059;52.218;5.172;2023-08-20T01:52:34;101817.44;;;18.65;100.00
65173;BME280;69059;52.218;5.172;2023-08-20T01:55:02;101815.22;;;18.62;100.00
65173;BME280;69059;52.218;5.172;2023-08-20T01:57:30;101812.34;;;18.57;100.00
65173;BME280;69059;52.218;5.172;2023-08-20T01:59:58;101804.00;;;18.53;100.00
65173;BME280;69059;52.218;5.172;2023-08-20T02:02:26;101803.59;;;18.50;100.00
65173;BME280;69059;52.218;5.172;2023-08-20T02:04:55;101759.16;;;18.20;100.00
65173;BME280;69059;52.218;5.172;2023-08-20T02:07:23;101794.91;;;18.36;100.00
65173;BME280;69059;52.218;5.172;2023-08-20T02:09:51;101796.75;;;18.36;100.00
65173;BME280;69059;52.218;5.172;2023-08-20T02:12:18;101790.84;;;18.34;100.00
65173;BME280;69059;52.218;5.172;2023-08-20T02:14:46;101788.19;;;18.34;100.00
65173;BME280;69059;52.218;5.172;2023-08-20T02:17:14;101772.75;;;18.31;100.00
65173;BME280;69059;52.218;5.172;2023-08-20T02:19:41;101765.63;;;18.24;100.00
65173;BME280;69059;52.218;5.172;2023-08-20T02:22:10;101755.69;;;18.20;100.00
65173;BME280;69059;52.218;5.172;2023-08-20T02:24:38;101739.25;;;18.05;100.00
65173;BME280;69059;52.218;5.172;2023-08-20T02:27:06;101728.88;;;18.10;100.00
65173;BME280;69059;52.218;5.172;2023-08-20T02:29:34;101725.22;;;18.04;100.00
65173;BME280;69059;52.218;5.172;2023-08-20T02:32:01;101700.44;;;17.92;100.00
65173;BME280;69059;52.218;5.172;2023-08-20T02:34:29;101700.66;;;17.97;100.00
65173;BME280;69059;52.218;5.172;2023-08-20T02:36:57;101701.22;;;17.99;100.00
65173;BME280;69059;52.218;5.172;2023-08-20T02:39:26;101709.97;;;18.00;100.00
65173;BME280;69059;52.218;5.172;2023-08-20T02:41:53;101716.06;;;18.00;100.00
65173;BME280;69059;52.218;5.172;2023-08-20T02:44:21;101717.53;;;17.96;100.00
65173;BME280;69059;52.218;5.172;2023-08-20T02:46:49;101714.25;;;17.94;100.00
65173;BME280;69059;52.218;5.172;2023-08-20T02:49:17;101713.03;;;17.90;100.00
65173;BME280;69059;52.218;5.172;2023-08-20T02:51:44;101709.78;;;17.88;100.00
65173;BME280;69059;52.218;5.172;2023-08-20T02:54:12;101713.44;;;17.87;100.00
65173;BME280;69059;52.218;5.172;2023-08-20T02:56:41;101714.69;;;17.84;100.00
65173;BME280;69059;52.218;5.172;2023-08-20T02:59:09;101701.47;;;17.78;100.00
65173;BME280;69059;52.218;5.172;2023-08-20T03:01:36;101690.28;;;17.76;100.00
65173;BME280;69059;52.218;5.172;2023-08-20T03:04:04;101690.91;;;17.78;100.00
65173;BME280;69059;52.218;5.172;2023-08-20T03:06:32;101689.06;;;17.78;100.00
65173;BME280;69059;52.218;5.172;2023-08-20T03:09:00;101683.41;;;17.68;100.00
65173;BME280;69059;52.218;5.172;2023-08-20T03:11:30;101646.81;;;17.59;100.00
65173;BME280;69059;52.218;5.172;2023-08-20T03:13:59;101627.72;;;17.50;100.00
65173;BME280;69059;52.218;5.172;2023-08-20T03:16:27;101616.16;;;17.64;100.00
65173;BME280;69059;52.218;5.172;2023-08-20T03:18:54;101624.91;;;17.71;100.00
65173;BME280;69059;52.218;5.172;2023-08-20T03:21:22;101631.19;;;17.77;100.00
65173;BME280;69059;52.218;5.172;2023-08-20T03:23:50;101649.25;;;17.80;100.00
65173;BME280;69059;52.218;5.172;2023-08-20T03:26:17;101655.75;;;17.84;100.00
65173;BME280;69059;52.218;5.172;2023-08-20T03:28:45;101655.56;;;17.85;100.00
65173;BME280;69059;52.218;5.172;2023-08-20T03:31:14;101659.00;;;17.79;100.00
65173;BME280;69059;52.218;5.172;2023-08-20T03:33:42;101656.78;;;17.83;100.00
65173;BME280;69059;52.218;5.172;2023-08-20T03:36:09;101661.44;;;17.81;100.00
65173;BME280;69059;52.218;5.172;2023-08-20T03:38:37;101657.78;;;17.82;100.00
65173;BME280;69059;52.218;5.172;2023-08-20T03:41:05;101664.69;;;17.89;100.00
65173;BME280;69059;52.218;5.172;2023-08-20T03:43:32;101682.19;;;17.84;100.00
65173;BME280;69059;52.218;5.172;2023-08-20T03:46:01;101673.63;;;17.82;100.00
65173;BME280;69059;52.218;5.172;2023-08-20T03:48:30;101672.81;;;17.81;100.00
65173;BME280;69059;52.218;5.172;2023-08-20T03:50:57;101675.28;;;17.83;100.00
65173;BME280;69059;52.218;5.172;2023-08-20T03:53:25;101678.09;;;17.81;100.00
65173;BME280;69059;52.218;5.172;2023-08-20T03:55:53;101696.19;;;17.78;100.00
65173;BME280;69059;52.218;5.172;2023-08-20T03:58:20;101704.91;;;17.78;100.00
65173;BME280;69059;52.218;5.172;2023-08-20T04:00:48;101712.44;;;17.75;100.00
65173;BME280;69059;52.218;5.172;2023-08-20T04:03:16;101712.63;;;17.73;100.00
65173;BME280;69059;52.218;5.172;2023-08-20T04:05:49;101718.34;;;17.70;100.00
65173;BME280;69059;52.218;5.172;2023-08-20T04:08:16;101721.59;;;17.66;100.00
65173;BME280;69059;52.218;5.172;2023-08-20T04:10:44;101720.97;;;17.64;100.00
65173;BME280;69059;52.218;5.172;2023-08-20T04:13:12;101726.63;;;17.61;100.00
65173;BME280;69059;52.218;5.172;2023-08-20T04:15:40;101724.41;;;17.58;100.00
65173;BME280;69059;52.218;5.172;2023-08-20T04:18:08;101732.91;;;17.53;100.00
65173;BME280;69059;52.218;5.172;2023-08-20T04:20:36;101729.66;;;17.51;100.00
65173;BME280;69059;52.218;5.172;2023-08-20T04:23:05;101723.78;;;17.49;100.00
65173;BME280;69059;52.218;5.172;2023-08-20T04:25:34;101723.19;;;17.47;100.00
65173;BME280;69059;52.218;5.172;2023-08-20T04:28:02;101732.31;;;17.44;100.00
65173;BME280;69059;52.218;5.172;2023-08-20T04:30:30;101716.88;;;17.41;100.00
65173;BME280;69059;52.218;5.172;2023-08-20T04:32:57;101715.44;;;17.39;100.00
65173;BME280;69059;52.218;5.172;2023-08-20T04:35:25;101714.63;;;17.38;100.00
65173;BME280;69059;52.218;5.172;2023-08-20T04:37:53;101710.34;;;17.37;100.00
65173;BME280;69059;52.218;5.172;2023-08-20T04:40:22;101707.72;;;17.37;100.00
65173;BME280;69059;52.218;5.172;2023-08-20T04:42:50;101709.16;;;17.33;100.00
65173;BME280;69059;52.218;5.172;2023-08-20T04:45:18;101708.16;;;17.34;100.00
65173;BME280;69059;52.218;5.172;2023-08-20T04:47:46;101709.16;;;17.33;100.00
65173;BME280;69059;52.218;5.172;2023-08-20T04:50:14;101711.59;;;17.35;100.00
65173;BME280;69059;52.218;5.172;2023-08-20T04:52:45;101716.44;;;17.38;100.00
65173;BME280;69059;52.218;5.172;2023-08-20T04:55:12;101711.16;;;17.38;100.00
65173;BME280;69059;52.218;5.172;2023-08-20T04:57:43;101702.63;;;17.36;100.00
65173;BME280;69059;52.218;5.172;2023-08-20T05:00:11;101705.28;;;17.36;100.00
65173;BME280;69059;52.218;5.172;2023-08-20T05:02:39;101703.44;;;17.36;100.00
65173;BME280;69059;52.218;5.172;2023-08-20T05:05:07;101704.06;;;17.38;100.00
65173;BME280;69059;52.218;5.172;2023-08-20T05:07:34;101705.09;;;17.37;100.00
65173;BME280;69059;52.218;5.172;2023-08-20T05:10:02;101702.44;;;17.37;100.00
65173;BME280;69059;52.218;5.172;2023-08-20T05:12:30;101702.44;;;17.37;100.00
65173;BME280;69059;52.218;5.172;2023-08-20T05:15:00;101690.25;;;17.36;100.00
65173;BME280;69059;52.218;5.172;2023-08-20T05:17:27;101683.56;;;17.40;100.00
65173;BME280;69059;52.218;5.172;2023-08-20T05:19:55;101664.09;;;17.35;100.00
65173;BME280;69059;52.218;5.172;2023-08-20T05:22:23;101629.78;;;17.35;100.00
65173;BME280;69059;52.218;5.172;2023-08-20T05:24:50;101613.53;;;17.31;100.00
65173;BME280;69059;52.218;5.172;2023-08-20T05:27:18;101574.53;;;17.27;100.00
65173;BME280;69059;52.218;5.172;2023-08-20T05:29:46;101548.97;;;17.27;100.00
65173;BME280;69059;52.218;5.172;2023-08-20T05:32:15;101517.94;;;17.16;100.00
65173;BME280;69059;52.218;5.172;2023-08-20T05:34:43;101405.53;;;17.02;100.00
65173;BME280;69059;52.218;5.172;2023-08-20T05:37:11;101360.22;;;17.18;100.00
65173;BME280;69059;52.218;5.172;2023-08-20T05:39:40;101356.38;;;17.21;100.00
65173;BME280;69059;52.218;5.172;2023-08-20T05:42:08;101347.19;;;17.23;100.00
65173;BME280;69059;52.218;5.172;2023-08-20T05:44:35;101282.69;;;17.19;100.00
65173;BME280;69059;52.218;5.172;2023-08-20T05:47:03;101245.97;;;17.17;100.00
65173;BME280;69059;52.218;5.172;2023-08-20T05:49:33;101183.47;;;17.18;100.00
65173;BME280;69059;52.218;5.172;2023-08-20T05:52:01;101138.19;;;17.21;100.00
65173;BME280;69059;52.218;5.172;2023-08-20T05:54:28;101122.28;;;17.28;100.00
65173;BME280;69059;52.218;5.172;2023-08-20T05:56:57;101126.66;;;17.40;100.00
65173;BME280;69059;52.218;5.172;2023-08-20T05:59:24;101120.88;;;17.25;100.00
65173;BME280;69059;52.218;5.172;2023-08-20T06:01:52;101081.28;;;17.32;100.00
65173;BME280;69059;52.218;5.172;2023-08-20T06:04:20;101064.50;;;17.44;100.00
65173;BME280;69059;52.218;5.172;2023-08-20T06:06:49;101110.19;;;17.70;100.00
65173;BME280;69059;52.218;5.172;2023-08-20T06:09:17;101148.88;;;17.58;100.00
65173;BME280;69059;52.218;5.172;2023-08-20T06:11:45;101150.31;;;17.78;100.00
65173;BME280;69059;52.218;5.172;2023-08-20T06:14:13;101170.63;;;17.78;100.00
65173;BME280;69059;52.218;5.172;2023-08-20T06:16:41;101165.94;;;17.80;100.00
65173;BME280;69059;52.218;5.172;2023-08-20T06:19:08;101191.31;;;18.06;100.00
65173;BME280;69059;52.218;5.172;2023-08-20T06:21:36;101214.44;;;18.10;100.00
65173;BME280;69059;52.218;5.172;2023-08-20T06:24:06;101246.16;;;18.10;100.00
65173;BME280;69059;52.218;5.172;2023-08-20T06:26:35;101257.75;;;18.27;100.00
65173;BME280;69059;52.218;5.172;2023-08-20T06:29:03;101277.78;;;18.17;100.00
65173;BME280;69059;52.218;5.172;2023-08-20T06:31:30;101241.16;;;18.39;100.00
65173;BME280;69059;52.218;5.172;2023-08-20T06:33:59;101289.78;;;18.38;100.00
65173;BME280;69059;52.218;5.172;2023-08-20T06:36:26;101297.69;;;18.38;100.00
65173;BME280;69059;52.218;5.172;2023-08-20T06:38:54;101299.34;;;18.57;100.00
65173;BME280;69059;52.218;5.172;2023-08-20T06:41:23;101312.69;;;18.69;100.00
65173;BME280;69059;52.218;5.172;2023-08-20T06:43:51;101298.97;;;18.60;100.00
65173;BME280;69059;52.218;5.172;2023-08-20T06:46:19;101348.19;;;18.98;100.00
65173;BME280;69059;52.218;5.172;2023-08-20T06:48:46;101372.06;;;18.91;100.00
65173;BME280;69059;52.218;5.172;2023-08-20T06:51:14;101367.94;;;18.95;100.00
65173;BME280;69059;52.218;5.172;2023-08-20T06:53:42;101391.91;;;19.18;100.00
65173;BME280;69059;52.218;5.172;2023-08-20T06:56:10;101404.78;;;18.96;100.00
65173;BME280;69059;52.218;5.172;2023-08-20T06:58:40;101388.75;;;19.28;100.00
65173;BME280;69059;52.218;5.172;2023-08-20T07:01:08;101426.22;;;19.50;100.00
65173;BME280;69059;52.218;5.172;2023-08-20T07:03:37;101480.97;;;19.86;100.00
65173;BME280;69059;52.218;5.172;2023-08-20T07:06:05;101540.47;;;20.01;100.00
65173;BME280;69059;52.218;5.172;2023-08-20T07:08:33;101580.25;;;19.83;100.00
65173;BME280;69059;52.218;5.172;2023-08-20T07:11:00;101598.28;;;20.11;100.00
65173;BME280;69059;52.218;5.172;2023-08-20T07:13:28;101624.84;;;20.04;100.00
65173;BME280;69059;52.218;5.172;2023-08-20T07:15:57;101652.88;;;20.30;100.00
65173;BME280;69059;52.218;5.172;2023-08-20T07:18:25;101698.81;;;20.49;100.00
65173;BME280;69059;52.218;5.172;2023-08-20T07:20:54;101711.84;;;20.51;100.00
65173;BME280;69059;52.218;5.172;2023-08-20T07:23:22;101732.00;;;20.70;100.00
65173;BME280;69059;52.218;5.172;2023-08-20T07:25:50;101771.81;;;20.88;100.00
65173;BME280;69059;52.218;5.172;2023-08-20T07:28:18;101770.34;;;21.04;100.00
65173;BME280;69059;52.218;5.172;2023-08-20T07:31:08;101793.69;;;20.84;100.00
65173;BME280;69059;52.218;5.172;2023-08-20T07:33:36;101798.19;;;21.01;100.00
65173;BME280;69059;52.218;5.172;2023-08-20T07:36:03;101811.25;;;20.85;100.00
65173;BME280;69059;52.218;5.172;2023-08-20T07:38:31;101817.44;;;20.97;100.00
65173;BME280;69059;52.218;5.172;2023-08-20T07:40:59;101809.53;;;20.90;100.00
65173;BME280;69059;52.218;5.172;2023-08-20T07:43:26;101817.16;;;20.87;100.00
65173;BME280;69059;52.218;5.172;2023-08-20T07:45:54;101819.50;;;20.95;100.00
65173;BME280;69059;52.218;5.172;2023-08-20T07:48:23;101837.59;;;21.16;100.00
65173;BME280;69059;52.218;5.172;2023-08-20T07:50:51;101846.03;;;21.13;100.00
65173;BME280;69059;52.218;5.172;2023-08-20T07:53:19;101865.59;;;21.00;100.00
65173;BME280;69059;52.218;5.172;2023-08-20T07:55:46;101864.81;;;21.30;100.00
65173;BME280;69059;52.218;5.172;2023-08-20T07:58:14;101878.91;;;21.30;100.00
65173;BME280;69059;52.218;5.172;2023-08-20T08:00:42;101893.00;;;21.31;100.00
65173;BME280;69059;52.218;5.172;2023-08-20T08:03:10;101893.81;;;21.50;100.00
65173;BME280;69059;52.218;5.172;2023-08-20T08:05:39;101909.59;;;21.74;100.00
65173;BME280;69059;52.218;5.172;2023-08-20T08:08:07;101930.81;;;21.93;100.00
65173;BME280;69059;52.218;5.172;2023-08-20T08:10:34;101933.28;;;22.06;100.00
65173;BME280;69059;52.218;5.172;2023-08-20T08:13:02;101953.78;;;22.17;100.00
65173;BME280;69059;52.218;5.172;2023-08-20T08:15:30;101969.91;;;22.34;100.00
65173;BME280;69059;52.218;5.172;2023-08-20T08:17:58;101985.66;;;22.47;100.00
65173;BME280;69059;52.218;5.172;2023-08-20T08:20:25;101997.81;;;22.55;100.00
65173;BME280;69059;52.218;5.172;2023-08-20T08:22:54;101975.19;;;22.22;100.00
65173;BME280;69059;52.218;5.172;2023-08-20T08:25:22;102003.22;;;22.78;100.00
65173;BME280;69059;52.218;5.172;2023-08-20T08:27:50;102014.28;;;22.75;100.00
65173;BME280;69059;52.218;5.172;2023-08-20T08:30:26;102007.34;;;23.55;100.00
65173;BME280;69059;52.218;5.172;2023-08-20T08:32:54;102020.00;;;23.77;100.00
65173;BME280;69059;52.218;5.172;2023-08-20T08:35:22;102043.72;;;23.27;100.00
65173;BME280;69059;52.218;5.172;2023-08-20T08:37:49;102045.13;;;23.17;100.00
65173;BME280;69059;52.218;5.172;2023-08-20T08:40:18;102050.22;;;23.82;100.00
65173;BME280;69059;52.218;5.172;2023-08-20T08:42:47;102066.38;;;23.76;100.00
65173;BME280;69059;52.218;5.172;2023-08-20T08:45:16;102061.84;;;23.76;100.00
65173;BME280;69059;52.218;5.172;2023-08-20T08:47:45;102051.81;;;23.32;100.00
65173;BME280;69059;52.218;5.172;2023-08-20T08:50:13;102055.53;;;23.94;100.00
65173;BME280;69059;52.218;5.172;2023-08-20T08:52:41;102068.34;;;24.09;100.00
65173;BME280;69059;52.218;5.172;2023-08-20T08:55:09;102053.66;;;24.35;100.00
65173;BME280;69059;52.218;5.172;2023-08-20T08:57:38;102078.28;;;24.53;100.00
65173;BME280;69059;52.218;5.172;2023-08-20T09:00:06;102083.28;;;24.50;100.00
65173;BME280;69059;52.218;5.172;2023-08-20T09:02:34;102101.25;;;24.71;100.00
65173;BME280;69059;52.218;5.172;2023-08-20T09:05:02;102119.53;;;24.06;100.00
65173;BME280;69059;52.218;5.172;2023-08-20T09:07:30;102127.38;;;24.24;100.00
65173;BME280;69059;52.218;5.172;2023-08-20T09:09:59;102115.91;;;24.12;100.00
65173;BME280;69059;52.218;5.172;2023-08-20T09:12:27;102118.69;;;24.45;100.00
65173;BME280;69059;52.218;5.172;2023-08-20T09:14:56;102131.94;;;24.00;100.00
65173;BME280;69059;52.218;5.172;2023-08-20T09:17:27;102126.44;;;24.30;100.00
65173;BME280;69059;52.218;5.172;2023-08-20T09:19:55;102122.81;;;24.81;100.00
65173;BME280;69059;52.218;5.172;2023-08-20T09:22:24;102136.06;;;24.76;100.00
65173;BME280;69059;52.218;5.172;2023-08-20T09:24:52;102107.31;;;24.83;100.00
65173;BME280;69059;52.218;5.172;2023-08-20T09:27:20;102132.16;;;25.51;100.00
65173;BME280;69059;52.218;5.172;2023-08-20T09:29:49;102137.94;;;24.76;100.00
65173;BME280;69059;52.218;5.172;2023-08-20T09:32:19;102136.16;;;24.81;100.00
65173;BME280;69059;52.218;5.172;2023-08-20T09:34:47;102140.09;;;24.62;100.00
65173;BME280;69059;52.218;5.172;2023-08-20T09:37:15;102153.25;;;24.97;100.00
65173;BME280;69059;52.218;5.172;2023-08-20T09:39:44;102149.06;;;25.01;100.00
65173;BME280;69059;52.218;5.172;2023-08-20T09:42:12;102154.31;;;25.13;100.00
65173;BME280;69059;52.218;5.172;2023-08-20T09:44:40;102156.34;;;25.22;100.00
65173;BME280;69059;52.218;5.172;2023-08-20T09:47:08;102158.06;;;24.83;100.00
65173;BME280;69059;52.218;5.172;2023-08-20T09:49:38;102162.34;;;25.29;100.00
65173;BME280;69059;52.218;5.172;2023-08-20T09:52:06;102156.72;;;25.48;100.00
65173;BME280;69059;52.218;5.172;2023-08-20T09:54:38;102145.22;;;25.86;100.00
65173;BME280;69059;52.218;5.172;2023-08-20T09:57:10;102156.47;;;26.80;100.00
65173;BME280;69059;52.218;5.172;2023-08-20T09:59:40;102172.78;;;25.86;100.00
65173;BME280;69059;52.218;5.172;2023-08-20T10:02:08;102169.94;;;25.54;100.00
65173;BME280;69059;52.218;5.172;2023-08-20T10:04:40;102181.75;;;25.58;100.00
65173;BME280;69059;52.218;5.172;2023-08-20T10:07:09;102176.19;;;25.43;100.00
65173;BME280;69059;52.218;5.172;2023-08-20T10:09:38;102166.59;;;25.47;100.00
65173;BME280;69059;52.218;5.172;2023-08-20T10:12:09;102176.41;;;25.75;100.00
65173;BME280;69059;52.218;5.172;2023-08-20T10:14:37;102168.47;;;26.46;100.00
65173;BME280;69059;52.218;5.172;2023-08-20T10:17:08;102182.28;;;26.16;100.00
65173;BME280;69059;52.218;5.172;2023-08-20T10:19:36;102184.06;;;25.88;100.00
65173;BME280;69059;52.218;5.172;2023-08-20T10:22:06;102183.16;;;25.61;100.00
65173;BME280;69059;52.218;5.172;2023-08-20T10:24:39;102181.22;;;26.92;100.00
65173;BME280;69059;52.218;5.172;2023-08-20T10:27:08;102171.47;;;27.92;100.00
65173;BME280;69059;52.218;5.172;2023-08-20T10:29:37;102171.56;;;28.17;100.00
65173;BME280;69059;52.218;5.172;2023-08-20T10:32:06;102189.25;;;27.24;100.00
65173;BME280;69059;52.218;5.172;2023-08-20T10:34:35;102186.38;;;26.99;100.00
65173;BME280;69059;52.218;5.172;2023-08-20T10:37:09;102165.81;;;27.04;100.00
65173;BME280;69059;52.218;5.172;2023-08-20T10:39:37;102192.34;;;26.79;100.00
65173;BME280;69059;52.218;5.172;2023-08-20T10:42:09;102174.41;;;27.48;100.00
65173;BME280;69059;52.218;5.172;2023-08-20T10:44:56;102184.41;;;28.05;100.00
65173;BME280;69059;52.218;5.172;2023-08-20T10:47:24;102188.59;;;27.81;100.00
65173;BME280;69059;52.218;5.172;2023-08-20T10:49:52;102193.31;;;28.16;100.00
65173;BME280;69059;52.218;5.172;2023-08-20T10:52:23;102190.31;;;28.07;100.00
65173;BME280;69059;52.218;5.172;2023-08-20T10:54:51;102193.16;;;27.80;100.00
65173;BME280;69059;52.218;5.172;2023-08-20T10:57:19;102193.81;;;27.24;100.00
65173;BME280;69059;52.218;5.172;2023-08-20T10:59:56;102188.81;;;28.22;100.00
65173;BME280;69059;52.218;5.172;2023-08-20T11:02:24;102185.56;;;28.20;100.00
65173;BME280;69059;52.218;5.172;2023-08-20T11:04:52;102195.59;;;28.49;100.00
65173;BME280;69059;52.218;5.172;2023-08-20T11:07:21;102190.97;;;27.35;100.00
65173;BME280;69059;52.218;5.172;2023-08-20T11:09:51;102191.47;;;27.69;100.00
65173;BME280;69059;52.218;5.172;2023-08-20T11:12:19;102164.25;;;27.98;100.00
65173;BME280;69059;52.218;5.172;2023-08-20T11:14:47;102163.16;;;28.97;100.00
65173;BME280;69059;52.218;5.172;2023-08-20T11:17:15;102193.25;;;29.04;100.00
65173;BME280;69059;52.218;5.172;2023-08-20T11:19:43;102193.13;;;28.38;100.00
65173;BME280;69059;52.218;5.172;2023-08-20T11:22:28;102192.34;;;27.80;100.00
65173;BME280;69059;52.218;5.172;2023-08-20T11:24:57;102183.28;;;27.12;100.00
65173;BME280;69059;52.218;5.172;2023-08-20T11:27:26;102176.41;;;27.26;100.00
65173;BME280;69059;52.218;5.172;2023-08-20T11:29:54;102179.53;;;27.13;100.00
65173;BME280;69059;52.218;5.172;2023-08-20T11:32:23;102175.44;;;27.79;100.00
65173;BME280;69059;52.218;5.172;2023-08-20T11:34:50;102179.44;;;28.39;100.00
65173;BME280;69059;52.218;5.172;2023-08-20T11:37:20;102189.91;;;28.31;100.00
65173;BME280;69059;52.218;5.172;2023-08-20T11:39:48;102174.19;;;28.85;100.00
65173;BME280;69059;52.218;5.172;2023-08-20T11:42:17;102194.47;;;28.35;100.00
65173;BME280;69059;52.218;5.172;2023-08-20T11:44:45;102183.78;;;27.83;100.00
65173;BME280;69059;52.218;5.172;2023-08-20T11:47:14;102184.72;;;27.62;100.00
65173;BME280;69059;52.218;5.172;2023-08-20T11:49:42;102171.72;;;27.48;100.00
65173;BME280;69059;52.218;5.172;2023-08-20T11:52:10;102166.84;;;28.75;100.00
65173;BME280;69059;52.218;5.172;2023-08-20T11:54:39;102165.56;;;29.03;100.00
65173;BME280;69059;52.218;5.172;2023-08-20T11:57:07;102154.75;;;29.54;100.00
65173;BME280;69059;52.218;5.172;2023-08-20T11:59:36;102174.34;;;27.75;100.00
65173;BME280;69059;52.218;5.172;2023-08-20T12:02:03;102159.59;;;28.76;100.00
65173;BME280;69059;52.218;5.172;2023-08-20T12:04:31;102156.00;;;29.77;100.00
65173;BME280;69059;52.218;5.172;2023-08-20T12:07:03;102149.38;;;30.23;100.00
65173;BME280;69059;52.218;5.172;2023-08-20T12:09:32;102153.31;;;31.14;100.00
65173;BME280;69059;52.218;5.172;2023-08-20T12:12:00;102171.16;;;29.52;100.00
65173;BME280;69059;52.218;5.172;2023-08-20T12:14:28;102173.34;;;29.30;100.00
65173;BME280;69059;52.218;5.172;2023-08-20T12:16:57;102155.44;;;30.83;100.00
65173;BME280;69059;52.218;5.172;2023-08-20T12:19:24;102167.69;;;31.57;100.00
65173;BME280;69059;52.218;5.172;2023-08-20T12:21:52;102174.44;;;31.55;100.00
65173;BME280;69059;52.218;5.172;2023-08-20T12:24:20;102185.31;;;31.21;100.00
65173;BME280;69059;52.218;5.172;2023-08-20T12:26:48;102189.88;;;29.98;100.00
65173;BME280;69059;52.218;5.172;2023-08-20T12:29:15;102175.56;;;30.62;100.00
65173;BME280;69059;52.218;5.172;2023-08-20T12:31:43;102176.69;;;31.48;100.00
65173;BME280;69059;52.218;5.172;2023-08-20T12:34:12;102195.13;;;32.12;100.00
65173;BME280;69059;52.218;5.172;2023-08-20T12:36:40;102203.63;;;30.51;100.00
65173;BME280;69059;52.218;5.172;2023-08-20T12:39:08;102205.34;;;30.32;100.00
65173;BME280;69059;52.218;5.172;2023-08-20T12:41:36;102194.56;;;29.62;100.00
65173;BME280;69059;52.218;5.172;2023-08-20T12:44:04;102198.56;;;28.63;100.00
65173;BME280;69059;52.218;5.172;2023-08-20T12:46:32;102178.75;;;28.95;100.00